Time;durP1;ratioP1;P1;durP2;ratioP2;P2;SDS_P1;SDS_P2;PMS_P1;PMS_P2;Temp;Humidity;BMP_temperature;BMP_pressure;BME280_temperature;BME280_humidity;BME280_pressure;Samples;Min_cycle;Max_cycle;Signal;HPM_P1;HPM_P2
2022/06/10 00:01:05;;;;;;;7.40;5.80;;;21.10;99.90;;;;;;5051453;28;20469;-57
2022/06/10 00:03:35;;;;;;;7.13;5.20;;;21.00;99.90;;;;;;5051564;28;20453;-56
2022/06/10 00:06:04;;;;;;;7.90;5.70;;;21.00;99.90;;;;;;5051286;28;20532;-57
2022/06/10 00:08:34;;;;;;;7.80;5.43;;;21.00;99.90;;;;;;5051563;28;20450;-56
2022/06/10 00:11:02;;;;;;;8.30;6.33;;;21.00;99.90;;;;;;5051300;28;20454;-57
2022/06/10 00:13:31;;;;;;;7.70;6.40;;;20.90;99.90;;;;;;5051326;28;20458;-56
2022/06/10 00:15:59;;;;;;;9.10;7.03;;;20.90;99.90;;;;;;5051244;28;20555;-56
2022/06/10 00:18:29;;;;;;;9.50;7.60;;;20.80;99.90;;;;;;5051105;28;20456;-56
2022/06/10 00:20:58;;;;;;;8.97;7.17;;;20.60;99.90;;;;;;5051140;28;20922;-56
2022/06/10 00:23:25;;;;;;;10.23;7.63;;;20.50;99.90;;;;;;5051106;28;20811;-57
2022/06/10 00:25:52;;;;;;;9.37;6.03;;;20.50;99.90;;;;;;5050916;28;20465;-56
2022/06/10 00:28:20;;;;;;;7.87;6.23;;;20.50;99.90;;;;;;5050966;28;20508;-56
2022/06/10 00:30:47;;;;;;;7.27;6.57;;;20.60;99.90;;;;;;5050933;28;20453;-56
2022/06/10 00:33:14;;;;;;;9.80;6.27;;;20.50;99.90;;;;;;5050952;28;20468;-56
2022/06/10 00:35:43;;;;;;;9.03;6.60;;;20.60;99.90;;;;;;5050898;28;20497;-56
2022/06/10 00:38:11;;;;;;;8.40;6.77;;;20.70;99.90;;;;;;5050810;28;20503;-55
2022/06/10 00:40:41;;;;;;;7.20;6.10;;;20.80;99.90;;;;;;5050617;28;20457;-56
2022/06/10 00:43:13;;;;;;;8.13;5.50;;;20.80;99.90;;;;;;5050004;28;20452;-56
2022/06/10 00:45:55;;;;;;;7.17;5.47;;;20.90;99.90;;;;;;5050502;28;20469;-56
2022/06/10 00:48:29;;;;;;;10.23;5.90;;;20.80;99.90;;;;;;5050688;28;20499;-55
2022/06/10 00:50:59;;;;;;;7.97;6.00;;;20.80;99.90;;;;;;5050604;28;20457;-56
2022/06/10 00:53:32;;;;;;;6.47;5.30;;;20.70;99.90;;;;;;5050278;28;20503;-55
2022/06/10 00:56:01;;;;;;;6.40;5.20;;;20.80;99.90;;;;;;5050218;28;20572;-56
2022/06/10 00:58:35;;;;;;;9.80;5.17;;;20.80;99.90;;;;;;5050434;28;20496;-56
2022/06/10 01:01:03;;;;;;;6.13;4.87;;;20.80;99.90;;;;;;5050476;28;20453;-56
2022/06/10 01:03:31;;;;;;;6.40;4.50;;;20.80;99.90;;;;;;5050229;28;20453;-56
2022/06/10 01:06:00;;;;;;;7.57;4.93;;;20.80;99.90;;;;;;5050247;28;20528;-56
2022/06/10 01:08:27;;;;;;;5.90;4.50;;;20.80;99.90;;;;;;5050511;28;20934;-56
2022/06/10 01:11:08;;;;;;;6.30;4.47;;;20.80;99.90;;;;;;5050344;28;20921;-56
2022/06/10 01:13:48;;;;;;;5.50;4.40;;;20.70;99.90;;;;;;5050435;28;20785;-56
2022/06/10 01:16:23;;;;;;;4.90;4.00;;;20.70;99.90;;;;;;5050213;28;20446;-56
2022/06/10 01:18:57;;;;;;;6.43;4.73;;;20.70;99.90;;;;;;5050105;28;20816;-56
2022/06/10 01:21:52;;;;;;;10.13;4.67;;;20.70;99.90;;;;;;5050170;28;20536;-57
2022/06/10 01:24:50;;;;;;;10.10;5.27;;;20.70;99.90;;;;;;5049334;28;20466;-56
2022/06/10 01:27:49;;;;;;;8.07;5.50;;;20.70;99.90;;;;;;5050064;28;20496;-55
2022/06/10 01:30:57;;;;;;;9.30;5.90;;;20.50;99.90;;;;;;5050191;28;20453;-56
2022/06/10 01:33:41;;;;;;;7.70;5.37;;;20.30;99.90;;;;;;5049841;28;20885;-55
2022/06/10 01:36:18;;;;;;;9.43;5.40;;;20.30;99.90;;;;;;5049761;28;20485;-56
2022/06/10 01:38:50;;;;;;;6.60;5.00;;;20.20;99.90;;;;;;5050056;28;20453;-56
2022/06/10 01:41:26;;;;;;;6.17;4.83;;;20.20;99.90;;;;;;5049563;28;20457;-55
2022/06/10 01:44:01;;;;;;;5.43;4.37;;;20.30;99.90;;;;;;5049345;28;20489;-55
2022/06/10 01:46:32;;;;;;;7.90;5.37;;;20.40;99.90;;;;;;5049349;28;20469;-57
2022/06/10 01:49:10;;;;;;;6.33;5.20;;;20.40;99.90;;;;;;5049765;28;20864;-57
2022/06/10 01:51:46;;;;;;;6.73;5.13;;;20.30;99.90;;;;;;5049721;28;20453;-56
2022/06/10 01:54:21;;;;;;;6.13;4.80;;;20.40;99.90;;;;;;5049527;28;20482;-56
2022/06/10 01:56:51;;;;;;;7.33;5.67;;;20.50;99.90;;;;;;5049593;28;20891;-56
2022/06/10 01:59:23;;;;;;;8.57;5.60;;;20.50;99.90;;;;;;5049643;28;20453;-56
2022/06/10 02:02:06;;;;;;;10.57;5.63;;;20.50;99.90;;;;;;5049322;28;20508;-56
2022/06/10 02:04:37;;;;;;;7.40;5.30;;;20.60;99.90;;;;;;5049402;28;20449;-56
2022/06/10 02:07:08;;;;;;;6.50;5.10;;;20.60;99.90;;;;;;5049667;28;20553;-56
2022/06/10 02:09:39;;;;;;;7.47;5.00;;;20.50;99.90;;;;;;5049546;28;20511;-56
2022/06/10 02:12:12;;;;;;;6.73;5.10;;;20.60;99.90;;;;;;5049234;28;20511;-57
2022/06/10 02:14:44;;;;;;;9.30;6.20;;;20.60;99.90;;;;;;5049045;28;20497;-56
2022/06/10 02:17:15;;;;;;;6.10;4.93;;;20.60;99.90;;;;;;5049260;28;20934;-57
2022/06/10 02:19:46;;;;;;;6.60;5.20;;;20.70;99.90;;;;;;5049389;28;20556;-56
2022/06/10 02:22:17;;;;;;;7.57;5.67;;;20.70;99.90;;;;;;5049206;28;20460;-56
2022/06/10 02:24:48;;;;;;;8.63;5.17;;;20.70;99.90;;;;;;5049327;28;20453;-57
2022/06/10 02:27:17;;;;;;;7.80;5.40;;;20.70;99.90;;;;;;5049116;28;20846;-56
2022/06/10 02:29:52;;;;;;;10.43;5.67;;;20.70;99.90;;;;;;5049429;28;20820;-56
2022/06/10 02:32:21;;;;;;;7.20;5.27;;;20.70;99.90;;;;;;5049329;28;20536;-56
2022/06/10 02:34:48;;;;;;;8.73;5.40;;;20.70;99.90;;;;;;5050328;28;20536;-56
2022/06/10 02:37:22;;;;;;;7.87;6.03;;;20.70;99.90;;;;;;5052870;28;20453;-56
2022/06/10 02:39:56;;;;;;;7.13;5.70;;;20.70;99.90;;;;;;5053175;28;20546;-56
2022/06/10 02:42:28;;;;;;;7.37;6.17;;;20.70;99.90;;;;;;5052641;28;21091;-56
2022/06/10 02:45:02;;;;;;;9.53;5.87;;;20.70;99.90;;;;;;5052207;28;20493;-56
2022/06/10 02:47:40;;;;;;;7.53;5.60;;;20.60;99.90;;;;;;5052520;28;20502;-56
2022/06/10 02:50:09;;;;;;;8.93;5.37;;;20.60;99.90;;;;;;5052472;28;20548;-56
2022/06/10 02:52:37;;;;;;;7.90;5.63;;;20.60;99.90;;;;;;5052872;28;20485;-56
2022/06/10 02:55:06;;;;;;;15.23;13.07;;;20.60;99.90;;;;;;5052654;28;20493;-56
2022/06/10 03:03:15;;;;;;;8.63;6.63;;;20.60;99.90;;;;;;5052598;28;20457;-56
2022/06/10 03:05:54;;;;;;;9.00;7.00;;;20.50;99.90;;;;;;5052596;28;20519;-56
2022/06/10 03:08:27;;;;;;;11.80;8.80;;;20.50;99.90;;;;;;5052403;28;20460;-56
2022/06/10 03:11:11;;;;;;;8.87;7.97;;;20.50;99.90;;;;;;5052341;28;20989;-56
2022/06/10 03:13:52;;;;;;;15.53;8.10;;;20.60;99.90;;;;;;5052579;28;20453;-56
2022/06/10 03:16:40;;;;;;;14.40;13.00;;;20.70;99.90;;;;;;5052324;28;21056;-56
2022/06/10 03:19:19;;;;;;;11.53;8.97;;;20.70;99.90;;;;;;5052116;28;20454;-56
2022/06/10 03:21:56;;;;;;;10.23;6.23;;;20.70;99.90;;;;;;5052064;28;20454;-57
2022/06/10 03:24:30;;;;;;;7.47;6.33;;;20.60;99.90;;;;;;5052360;28;20454;-56
2022/06/10 03:27:04;;;;;;;10.57;7.27;;;20.60;99.90;;;;;;5052162;28;20485;-56
2022/06/10 03:29:36;;;;;;;11.67;10.47;;;20.60;99.90;;;;;;5052142;28;20925;-56
2022/06/10 03:32:11;;;;;;;19.07;17.33;;;20.60;99.90;;;;;;5051953;28;20449;-56
2022/06/10 03:34:43;;;;;;;7.73;6.67;;;20.50;99.90;;;;;;5051871;28;20470;-55
2022/06/10 03:37:12;;;;;;;8.63;7.27;;;20.60;99.90;;;;;;5051923;28;20999;-56
2022/06/10 03:39:41;;;;;;;7.90;7.00;;;20.60;99.90;;;;;;5051909;28;20505;-55
2022/06/10 03:42:14;;;;;;;8.50;7.40;;;20.60;99.90;;;;;;5051679;28;20942;-56
2022/06/10 03:44:42;;;;;;;10.00;7.20;;;20.60;99.90;;;;;;5051445;28;20497;-56
2022/06/10 03:47:15;;;;;;;9.67;7.20;;;20.70;99.90;;;;;;5051158;28;20461;-56
2022/06/10 03:49:48;;;;;;;7.80;7.00;;;20.70;99.90;;;;;;5051746;28;20954;-56
2022/06/10 03:52:20;;;;;;;8.53;7.37;;;20.70;99.90;;;;;;5051738;28;20519;-56
2022/06/10 03:54:47;;;;;;;8.70;7.57;;;20.70;99.90;;;;;;5051442;28;20454;-56
2022/06/10 03:57:16;;;;;;;7.30;6.60;;;20.60;99.90;;;;;;5051299;28;20454;-56
2022/06/10 03:59:44;;;;;;;8.43;7.17;;;20.60;99.90;;;;;;5051737;28;20456;-56
2022/06/10 04:02:11;;;;;;;9.47;7.50;;;20.70;99.90;;;;;;5051550;28;20450;-56
2022/06/10 04:04:39;;;;;;;7.27;6.47;;;20.70;99.90;;;;;;5051563;28;21054;-56
2022/06/10 04:07:08;;;;;;;8.33;6.60;;;20.70;99.90;;;;;;5051304;28;20540;-56
2022/06/10 04:09:35;;;;;;;10.40;7.47;;;20.70;99.90;;;;;;5051307;28;20458;-56
2022/06/10 04:12:02;;;;;;;7.57;6.07;;;20.60;99.90;;;;;;5051205;28;20458;-56
2022/06/10 04:14:29;;;;;;;8.17;6.50;;;20.60;99.90;;;;;;5051199;28;20457;-56
2022/06/10 04:16:56;;;;;;;6.60;5.73;;;20.60;99.90;;;;;;5051075;28;20490;-57
2022/06/10 04:19:23;;;;;;;7.10;5.70;;;20.60;99.90;;;;;;5051072;28;20453;-58
2022/06/10 04:21:50;;;;;;;7.13;5.90;;;20.70;99.90;;;;;;5051328;28;20458;-57
2022/06/10 04:24:19;;;;;;;12.20;7.20;;;20.70;99.90;;;;;;5050966;28;20450;-56
2022/06/10 04:26:46;;;;;;;13.07;11.77;;;20.80;99.90;;;;;;5051243;28;20477;-57
2022/06/10 04:29:15;;;;;;;10.50;9.50;;;20.80;99.90;;;;;;5051225;28;20458;-57
2022/06/10 04:31:42;;;;;;;8.50;7.07;;;20.80;99.90;;;;;;5050908;28;20846;-55
2022/06/10 04:34:11;;;;;;;8.23;6.20;;;20.80;99.90;;;;;;5050745;28;20446;-55
2022/06/10 04:36:39;;;;;;;6.77;5.60;;;20.80;99.90;;;;;;5050494;28;20525;-56
2022/06/10 04:39:06;;;;;;;8.30;5.87;;;20.90;99.90;;;;;;5050832;28;20454;-57
2022/06/10 04:41:35;;;;;;;16.27;14.43;;;20.90;99.90;;;;;;5050762;28;20457;-56
2022/06/10 04:44:02;;;;;;;19.10;14.00;;;20.90;99.90;;;;;;5050293;28;20904;-56
2022/06/10 04:46:33;;;;;;;11.50;8.63;;;20.80;99.90;;;;;;5050493;28;20470;-56
2022/06/10 04:49:00;;;;;;;8.60;5.63;;;20.90;99.90;;;;;;5050231;28;20923;-56
2022/06/10 04:51:27;;;;;;;8.10;5.00;;;20.80;99.90;;;;;;5050440;28;20461;-57
2022/06/10 04:53:55;;;;;;;6.50;5.00;;;20.80;99.90;;;;;;5050541;28;20454;-56
2022/06/10 04:56:23;;;;;;;6.43;4.97;;;20.80;99.90;;;;;;5050394;28;20913;-57
2022/06/10 04:58:51;;;;;;;7.90;6.00;;;20.80;99.90;;;;;;5049651;28;20458;-61
2022/06/10 05:01:18;;;;;;;7.63;5.63;;;20.90;99.90;;;;;;5050132;28;20989;-56
2022/06/10 05:03:45;;;;;;;7.30;5.70;;;20.90;99.90;;;;;;5049968;28;20454;-57
2022/06/10 05:06:12;;;;;;;8.20;5.67;;;20.90;99.90;;;;;;5050102;28;20954;-57
2022/06/10 05:08:40;;;;;;;7.60;6.20;;;20.90;99.90;;;;;;5051811;28;20450;-60
2022/06/10 05:11:08;;;;;;;9.00;6.50;;;21.00;99.90;;;;;;5052073;28;20454;-62
2022/06/10 05:13:36;;;;;;;7.73;6.50;;;21.00;99.90;;;;;;5050194;28;20547;-60
2022/06/10 05:16:06;;;;;;;8.10;6.60;;;21.10;99.90;;;;;;5049709;28;21086;-61
2022/06/10 05:18:34;;;;;;;9.17;6.40;;;21.20;99.90;;;;;;5050033;28;21004;-60
2022/06/10 05:21:01;;;;;;;10.07;8.40;;;21.30;99.90;;;;;;5050076;28;20868;-61
2022/06/10 05:23:29;;;;;;;9.30;7.97;;;21.30;99.90;;;;;;5049948;28;20462;-60
2022/06/10 05:25:56;;;;;;;10.20;8.70;;;21.40;99.90;;;;;;5049891;28;20523;-60
2022/06/10 05:28:23;;;;;;;8.00;7.17;;;21.40;99.90;;;;;;5049917;28;20450;-62
2022/06/10 05:30:51;;;;;;;10.20;8.00;;;21.40;99.90;;;;;;5049698;28;20458;-61
2022/06/10 05:33:19;;;;;;;8.60;7.70;;;21.40;99.90;;;;;;5049925;28;20854;-59
2022/06/10 05:35:47;;;;;;;10.30;9.10;;;21.40;99.90;;;;;;5049781;28;20548;-61
2022/06/10 05:38:16;;;;;;;9.43;8.50;;;21.40;99.90;;;;;;5049819;28;20914;-64
2022/06/10 05:40:43;;;;;;;10.93;8.10;;;21.50;99.90;;;;;;5049582;28;20546;-62
2022/06/10 05:43:10;;;;;;;11.17;7.97;;;21.50;99.90;;;;;;5049543;28;20446;-59
2022/06/10 05:45:37;;;;;;;10.63;8.10;;;21.50;99.90;;;;;;5049362;28;20543;-62
2022/06/10 05:48:05;;;;;;;12.00;8.40;;;21.60;99.90;;;;;;5049430;28;20458;-65
2022/06/10 05:50:36;;;;;;;12.00;7.77;;;21.70;99.90;;;;;;5049642;28;20465;-60
2022/06/10 05:53:06;;;;;;;9.40;8.40;;;21.70;99.90;;;;;;5049324;28;20457;-57
2022/06/10 05:55:35;;;;;;;12.23;9.57;;;21.80;99.90;;;;;;5049327;28;20502;-59
2022/06/10 05:58:02;;;;;;;13.37;10.43;;;21.80;99.90;;;;;;5049483;28;20458;-60
2022/06/10 06:00:31;;;;;;;11.10;10.00;;;21.80;99.90;;;;;;5048950;28;20454;-60
2022/06/10 06:02:59;;;;;;;11.50;10.30;;;21.90;99.90;;;;;;5049625;28;20580;-62
2022/06/10 06:05:28;;;;;;;9.73;8.80;;;21.80;99.90;;;;;;5049313;28;20478;-62
2022/06/10 06:07:57;;;;;;;10.67;9.60;;;21.80;99.90;;;;;;5049344;28;20548;-63
2022/06/10 06:10:27;;;;;;;10.60;9.03;;;21.80;99.90;;;;;;5053138;28;20553;-63
2022/06/10 06:12:54;;;;;;;10.47;8.97;;;21.90;99.90;;;;;;5053474;28;20465;-61
2022/06/10 06:15:22;;;;;;;11.70;10.30;;;21.90;99.90;;;;;;5053519;28;20486;-59
2022/06/10 06:17:50;;;;;;;9.30;8.40;;;21.90;99.90;;;;;;5053498;28;20503;-60
2022/06/10 06:20:18;;;;;;;9.97;8.87;;;21.80;99.90;;;;;;5053355;28;20461;-58
2022/06/10 06:22:46;;;;;;;10.00;8.40;;;21.80;99.90;;;;;;5053336;28;20867;-60
2022/06/10 06:25:17;;;;;;;10.20;8.03;;;21.80;99.90;;;;;;5053207;28;20515;-58
2022/06/10 06:27:45;;;;;;;9.83;8.83;;;21.70;99.90;;;;;;5053161;28;20601;-58
2022/06/10 06:30:17;;;;;;;10.50;7.70;;;21.70;99.90;;;;;;5053164;28;20515;-58
2022/06/10 06:32:44;;;;;;;12.43;9.20;;;21.70;99.90;;;;;;5053179;28;20445;-58
2022/06/10 06:35:11;;;;;;;11.73;8.77;;;21.70;99.90;;;;;;5052612;28;20856;-58
2022/06/10 06:37:39;;;;;;;10.40;8.50;;;21.70;99.90;;;;;;5053064;28;20857;-58
2022/06/10 06:40:07;;;;;;;10.97;8.30;;;21.70;99.90;;;;;;5052618;28;20544;-58
2022/06/10 06:42:36;;;;;;;10.77;9.67;;;21.70;99.90;;;;;;5053093;28;20445;-59
2022/06/10 06:45:05;;;;;;;9.30;8.40;;;21.70;99.90;;;;;;5052154;28;20578;-65
2022/06/10 06:47:32;;;;;;;10.80;9.00;;;21.70;99.90;;;;;;5052793;28;20457;-67
2022/06/10 06:49:59;;;;;;;11.67;10.23;;;21.70;99.90;;;;;;5052529;28;20457;-61
2022/06/10 06:52:27;;;;;;;10.17;8.73;;;21.60;99.90;;;;;;5052608;28;20458;-61
2022/06/10 06:54:54;;;;;;;11.63;9.40;;;21.60;99.90;;;;;;5052300;28;20845;-68
2022/06/10 06:57:21;;;;;;;9.17;8.03;;;21.50;99.90;;;;;;5052451;28;20497;-61
2022/06/10 06:59:50;;;;;;;9.03;8.13;;;21.60;99.90;;;;;;5052439;28;20450;-60
2022/06/10 07:02:17;;;;;;;11.27;9.90;;;21.60;99.90;;;;;;5052242;28;20493;-59
2022/06/10 07:04:44;;;;;;;10.30;8.60;;;21.60;99.90;;;;;;5052180;28;20934;-59
2022/06/10 07:07:11;;;;;;;12.03;8.60;;;21.70;99.90;;;;;;5052480;28;20453;-60
2022/06/10 07:09:38;;;;;;;10.90;9.43;;;21.70;99.90;;;;;;5052397;28;20457;-59
2022/06/10 07:12:06;;;;;;;11.03;9.60;;;21.80;99.90;;;;;;5052311;28;20461;-60
2022/06/10 07:14:33;;;;;;;11.60;9.00;;;21.80;99.90;;;;;;5051855;28;20453;-60
2022/06/10 07:17:02;;;;;;;9.80;8.90;;;21.90;99.90;;;;;;5051923;28;21074;-59
2022/06/10 07:19:29;;;;;;;11.03;9.23;;;21.90;99.90;;;;;;5052336;28;20974;-59
2022/06/10 07:21:56;;;;;;;11.47;10.30;;;21.90;99.90;;;;;;5051426;28;20819;-60
2022/06/10 07:24:23;;;;;;;10.87;9.77;;;21.90;99.90;;;;;;5052262;28;20546;-59
2022/06/10 07:26:50;;;;;;;10.17;9.17;;;21.90;99.90;;;;;;5052200;28;20745;-60
2022/06/10 07:29:17;;;;;;;12.00;10.90;;;21.90;99.90;;;;;;5052090;28;20509;-60
2022/06/10 07:31:45;;;;;;;13.17;10.80;;;22.00;99.90;;;;;;5051802;28;20996;-60
2022/06/10 07:34:16;;;;;;;11.53;10.40;;;22.10;99.90;;;;;;5052028;28;20457;-60
2022/06/10 07:36:43;;;;;;;11.67;10.50;;;22.10;99.90;;;;;;5051843;28;20497;-59
2022/06/10 07:39:09;;;;;;;11.90;10.57;;;22.30;99.90;;;;;;5051975;28;20922;-61
2022/06/10 07:44:21;;;;;;;12.20;11.00;;;22.30;99.90;;;;;;5051347;28;20488;-59
2022/06/10 07:46:49;;;;;;;12.80;11.47;;;22.40;99.90;;;;;;5051923;28;20501;-59
2022/06/10 07:49:18;;;;;;;12.33;11.17;;;22.50;99.90;;;;;;5052026;28;21000;-59
2022/06/10 07:51:46;;;;;;;13.53;11.17;;;22.50;99.90;;;;;;5051745;28;20753;-59
2022/06/10 07:54:13;;;;;;;11.80;10.47;;;22.60;99.90;;;;;;5051653;28;20449;-60
2022/06/10 07:56:41;;;;;;;11.77;10.10;;;22.60;99.90;;;;;;5051314;28;20870;-60
2022/06/10 07:59:09;;;;;;;11.80;10.60;;;22.70;99.90;;;;;;5051472;28;20466;-60
2022/06/10 08:01:36;;;;;;;12.53;11.27;;;22.80;99.90;;;;;;5051067;28;20803;-59
2022/06/10 08:04:06;;;;;;;11.70;10.60;;;22.90;99.90;;;;;;5051356;28;20450;-60
2022/06/10 08:06:39;;;;;;;11.63;10.47;;;22.90;99.90;;;;;;5051226;28;20472;-60
2022/06/10 08:09:07;;;;;;;10.97;9.97;;;23.10;99.90;;;;;;5051323;28;20537;-60
2022/06/10 08:11:34;;;;;;;10.47;9.37;;;23.20;99.90;;;;;;5051318;28;20511;-60
2022/06/10 08:14:01;;;;;;;12.00;10.60;;;23.40;99.90;;;;;;5051136;28;20458;-60
2022/06/10 08:16:28;;;;;;;11.43;9.50;;;23.40;99.90;;;;;;5051017;28;20551;-60
2022/06/10 08:18:55;;;;;;;11.33;10.23;;;23.50;99.90;;;;;;5051228;28;20453;-60
2022/06/10 08:24:08;;;;;;;13.63;10.97;;;23.70;99.90;;;;;;5050635;28;20429;-60
2022/06/10 08:26:36;;;;;;;11.67;10.57;;;23.60;99.90;;;;;;5050861;28;20473;-60
2022/06/10 08:29:03;;;;;;;10.63;9.63;;;23.70;99.90;;;;;;5050861;28;20480;-61
2022/06/10 08:31:31;;;;;;;9.90;8.90;;;23.70;99.90;;;;;;5050303;28;20458;-59
2022/06/10 08:33:58;;;;;;;11.00;9.70;;;23.60;99.90;;;;;;5050830;28;20507;-59
2022/06/10 08:36:25;;;;;;;10.33;8.93;;;23.70;99.90;;;;;;5050544;28;20535;-59
2022/06/10 08:38:53;;;;;;;11.93;8.00;;;23.90;99.90;;;;;;5050578;28;20511;-59
2022/06/10 08:41:31;;;;;;;9.40;8.40;;;24.00;99.90;;;;;;5050750;28;20481;-60
2022/06/10 08:44:08;;;;;;;9.53;8.37;;;24.20;99.90;;;;;;5050445;28;20554;-60
2022/06/10 08:47:27;;;;;;;12.13;7.67;;;24.30;99.90;;;;;;5050304;28;20977;-60
2022/06/10 08:50:19;;;;;;;7.33;6.53;;;24.60;99.90;;;;;;5050528;28;20545;-57
2022/06/10 08:52:55;;;;;;;7.13;6.43;;;24.80;99.90;;;;;;5050489;28;20524;-57
2022/06/10 08:55:34;;;;;;;8.23;6.63;;;24.70;99.90;;;;;;5050460;28;20530;-56
2022/06/10 08:58:13;;;;;;;8.30;6.53;;;24.70;99.90;;;;;;5050451;28;20492;-58
2022/06/10 09:00:41;;;;;;;8.03;7.03;;;24.80;99.90;;;;;;5050379;28;20527;-58
2022/06/10 09:03:14;;;;;;;7.90;7.10;;;24.90;99.90;;;;;;5049875;28;20461;-63
2022/06/10 09:05:46;;;;;;;8.80;6.57;;;25.10;99.90;;;;;;5049862;28;20581;-61
2022/06/10 09:08:16;;;;;;;8.00;7.20;;;25.10;99.90;;;;;;5050083;28;20461;-59
2022/06/10 09:10:47;;;;;;;7.00;6.30;;;25.20;99.90;;;;;;5050136;28;20532;-59
2022/06/10 09:13:37;;;;;;;8.37;6.83;;;25.30;99.90;;;;;;5049926;28;20462;-59
2022/06/10 09:16:15;;;;;;;7.73;6.20;;;25.30;99.90;;;;;;5049938;28;20800;-59
2022/06/10 09:18:55;;;;;;;7.60;6.80;;;25.30;99.90;;;;;;5050058;28;21067;-59
2022/06/10 09:21:28;;;;;;;9.20;7.70;;;25.20;99.90;;;;;;5050144;28;20504;-63
2022/06/10 09:23:59;;;;;;;8.63;7.50;;;25.10;99.90;;;;;;5049813;28;20454;-59
2022/06/10 09:26:34;;;;;;;8.20;7.37;;;25.10;99.90;;;;;;5049989;28;20857;-59
2022/06/10 09:29:03;;;;;;;9.70;7.97;;;24.90;99.90;;;;;;5050030;28;20875;-58
2022/06/10 09:31:40;;;;;;;7.70;7.00;;;24.80;99.90;;;;;;5049544;28;20454;-58
2022/06/10 09:34:33;;;;;;;8.13;7.33;;;24.70;99.90;;;;;;5049339;28;20454;-61
2022/06/10 09:37:09;;;;;;;9.53;7.97;;;24.60;99.90;;;;;;5046922;28;20489;-58
2022/06/10 09:42:42;;;;;;;10.80;9.70;;;24.30;99.90;;;;;;5049195;28;20453;-63
2022/06/10 09:45:20;;;;;;;11.33;10.23;;;24.20;99.90;;;;;;5048847;28;20492;-62
2022/06/10 09:48:00;;;;;;;14.00;10.10;;;24.00;99.90;;;;;;5049861;28;20450;-63
2022/06/10 09:50:32;;;;;;;16.50;14.90;;;23.80;99.90;;;;;;5049901;28;20458;-62
2022/06/10 09:53:25;;;;;;;18.33;16.33;;;23.60;99.90;;;;;;5049243;28;20554;-66
2022/06/10 09:56:08;;;;;;;13.73;11.63;;;23.50;99.90;;;;;;5041796;28;20565;-62
2022/06/10 09:58:50;;;;;;;20.40;11.77;;;23.30;99.90;;;;;;5049523;28;20489;-61
2022/06/10 10:01:31;;;;;;;12.90;11.60;;;23.20;99.90;;;;;;5049462;28;20461;-60
2022/06/10 10:04:22;;;;;;;11.53;10.33;;;22.90;99.90;;;;;;5049272;28;20458;-62
2022/06/10 10:06:55;;;;;;;11.73;9.87;;;22.70;99.90;;;;;;5049318;28;20477;-58
2022/06/10 10:09:34;;;;;;;12.63;11.37;;;22.50;99.90;;;;;;5049337;28;20500;-57
2022/06/10 10:12:20;;;;;;;15.07;11.67;;;22.40;99.90;;;;;;5049190;28;20457;-59
2022/06/10 10:14:55;;;;;;;12.53;10.80;;;22.30;99.90;;;;;;5049229;28;20561;-62
2022/06/10 10:17:42;;;;;;;11.67;9.57;;;22.30;99.90;;;;;;5049243;28;20512;-65
2022/06/10 10:20:20;;;;;;;10.27;8.10;;;22.30;99.90;;;;;;5049209;28;20516;-64
2022/06/10 10:23:10;;;;;;;7.73;6.07;;;22.00;99.90;;;;;;5049212;28;20454;-66
2022/06/10 10:25:40;;;;;;;5.30;3.60;;;21.60;99.90;;;;;;5048786;28;21045;-63
2022/06/10 10:28:16;;;;;;;6.37;4.30;;;21.00;99.90;;;;;;5049418;28;20496;-67
2022/06/10 10:30:49;;;;;;;6.77;4.47;;;20.70;99.90;;;;;;5049097;28;20446;-58
2022/06/10 10:33:18;;;;;;;11.30;7.50;;;20.60;99.90;;;;;;5049260;28;20450;-59
2022/06/10 10:35:52;;;;;;;9.73;7.57;;;20.40;99.90;;;;;;5049117;28;20531;-58
2022/06/10 10:38:34;;;;;;;9.93;7.40;;;20.20;99.90;;;;;;5049038;28;20488;-59
2022/06/10 10:41:12;;;;;;;8.43;7.27;;;20.10;99.90;;;;;;5048876;28;20919;-58
2022/06/10 10:43:39;;;;;;;10.50;8.67;;;20.20;99.90;;;;;;5048593;28;21043;-58
2022/06/10 10:46:24;;;;;;;9.90;8.10;;;20.30;99.90;;;;;;5048967;28;20482;-57
2022/06/10 10:48:52;;;;;;;8.50;7.20;;;20.50;99.90;;;;;;5049070;28;20446;-58
2022/06/10 10:51:22;;;;;;;10.50;7.60;;;20.70;99.90;;;;;;5048672;28;20449;-58
2022/06/10 10:53:54;;;;;;;10.13;8.20;;;20.80;99.90;;;;;;5049047;28;20454;-57
2022/06/10 10:56:29;;;;;;;9.27;8.33;;;20.80;99.90;;;;;;5050907;28;21021;-58
2022/06/10 10:58:58;;;;;;;11.10;8.07;;;20.90;99.90;;;;;;5052641;28;20485;-57
2022/06/10 11:01:44;;;;;;;11.07;9.97;;;21.10;99.90;;;;;;5052648;28;20453;-58
2022/06/10 11:04:16;;;;;;;10.03;8.90;;;21.20;99.90;;;;;;5052329;28;20453;-58
2022/06/10 11:06:43;;;;;;;9.87;8.87;;;21.40;99.90;;;;;;5052630;28;20808;-58
2022/06/10 11:09:17;;;;;;;10.37;9.17;;;21.50;99.90;;;;;;5052637;28;20496;-58
2022/06/10 11:11:45;;;;;;;9.20;7.30;;;21.70;99.90;;;;;;5052643;28;20598;-58
2022/06/10 11:14:23;;;;;;;8.00;6.80;;;21.70;99.90;;;;;;5052352;28;20457;-58
2022/06/10 11:17:09;;;;;;;8.20;7.40;;;21.80;99.90;;;;;;5052288;28;20475;-60
2022/06/10 11:19:45;;;;;;;8.43;7.53;;;21.90;99.90;;;;;;5052534;28;20920;-66
2022/06/10 11:22:30;;;;;;;8.37;7.17;;;22.00;99.90;;;;;;5052367;28;20453;-61
2022/06/10 11:25:22;;;;;;;8.63;7.53;;;22.00;99.90;;;;;;5052085;28;20465;-60
2022/06/10 11:28:03;;;;;;;10.23;8.00;;;22.00;99.90;;;;;;5052455;28;20457;-60
2022/06/10 11:30:38;;;;;;;10.27;8.10;;;22.20;99.90;;;;;;5051805;28;20451;-62
2022/06/10 11:33:07;;;;;;;10.77;9.60;;;22.60;99.90;;;;;;5051694;28;20522;-60
2022/06/10 11:35:38;;;;;;;8.67;7.57;;;22.80;99.90;;;;;;5052038;28;20474;-61
2022/06/10 11:38:16;;;;;;;8.50;7.50;;;23.30;99.90;;;;;;5051859;28;20493;-63
2022/06/10 11:40:51;;;;;;;9.13;8.17;;;23.70;99.90;;;;;;5052080;28;20570;-64
2022/06/10 11:43:25;;;;;;;9.37;8.33;;;23.70;99.90;;;;;;5051762;28;20457;-69
2022/06/10 11:45:56;;;;;;;9.37;8.30;;;23.90;99.90;;;;;;5051764;28;20509;-63
2022/06/10 11:48:36;;;;;;;8.40;7.60;;;24.10;99.90;;;;;;5051715;28;20798;-59
2022/06/10 11:51:11;;;;;;;8.33;7.40;;;24.20;99.90;;;;;;5051835;28;20548;-60
2022/06/10 11:53:46;;;;;;;10.63;8.63;;;24.20;99.90;;;;;;5051811;28;20449;-57
2022/06/10 12:02:13;;;;;;;6.50;5.23;;;24.80;99.90;;;;;;5051246;28;21055;-57
2022/06/10 12:04:47;;;;;;;7.90;6.90;;;25.00;99.90;;;;;;5051376;28;20446;-58
2022/06/10 12:07:22;;;;;;;7.70;6.80;;;25.10;99.90;;;;;;5051000;28;20943;-57
2022/06/10 12:09:52;;;;;;;13.00;11.80;;;25.50;99.90;;;;;;5051712;28;20758;-57
2022/06/10 12:12:22;;;;;;;11.23;10.03;;;25.90;99.90;;;;;;5051508;28;20930;-58
2022/06/10 12:14:54;;;;;;;18.90;16.97;;;26.10;99.90;;;;;;5051250;28;20470;-56
2022/06/10 12:17:25;;;;;;;8.40;7.47;;;26.30;99.90;;;;;;5050943;28;20464;-58
2022/06/10 12:19:57;;;;;;;8.40;7.50;;;26.30;99.90;;;;;;5051093;28;20914;-57
2022/06/10 12:22:27;;;;;;;11.10;8.03;;;26.50;99.90;;;;;;5051544;28;20457;-58
2022/06/10 12:24:54;;;;;;;8.67;7.77;;;26.40;99.90;;;;;;5051197;28;20501;-58
2022/06/10 12:27:28;;;;;;;9.37;8.47;;;26.30;99.90;;;;;;5050841;28;20595;-58
2022/06/10 12:30:02;;;;;;;11.00;8.00;;;26.30;99.90;;;;;;5050705;28;20511;-57
2022/06/10 12:32:37;;;;;;;9.30;7.60;;;26.10;99.90;;;;;;5051000;28;20464;-58
2022/06/10 12:35:10;;;;;;;8.57;7.67;;;25.70;99.90;;;;;;5050504;28;20548;-56
2022/06/10 12:37:42;;;;;;;10.70;9.70;;;25.50;99.90;;;;;;5050285;28;20467;-58
2022/06/10 12:40:19;;;;;;;8.67;7.77;;;25.30;99.90;;;;;;5050646;28;20484;-58
2022/06/10 12:42:49;;;;;;;8.00;7.20;;;25.30;99.90;;;;;;5050660;28;20453;-58
2022/06/10 12:45:23;;;;;;;10.90;9.80;;;25.40;99.90;;;;;;5050293;28;20489;-57
2022/06/10 12:47:55;;;;;;;11.67;7.37;;;25.40;99.90;;;;;;5050533;28;20844;-57
2022/06/10 12:50:27;;;;;;;8.63;7.73;;;25.30;99.90;;;;;;5050491;28;20557;-58
2022/06/10 12:53:18;;;;;;;7.90;7.10;;;25.50;99.90;;;;;;5050607;28;20461;-57
2022/06/10 12:55:48;;;;;;;9.57;8.67;;;25.70;99.90;;;;;;5042556;28;20893;-58
2022/06/10 12:58:41;;;;;;;8.83;7.83;;;25.80;99.90;;;;;;5050414;28;20924;-57
2022/06/10 13:01:18;;;;;;;9.07;8.17;;;25.90;99.90;;;;;;5050215;28;20457;-58
2022/06/10 13:03:46;;;;;;;8.60;7.70;;;26.10;99.90;;;;;;5050349;28;20453;-57
2022/06/10 13:06:48;;;;;;;11.03;8.57;;;26.10;99.90;;;;;;5050382;28;20470;-58
2022/06/10 13:09:29;;;;;;;10.17;9.27;;;26.10;99.90;;;;;;5050294;28;20537;-58
2022/06/10 13:11:58;;;;;;;9.70;8.30;;;26.20;99.90;;;;;;5050475;28;20445;-58
2022/06/10 13:14:41;;;;;;;9.60;8.60;;;26.20;99.90;;;;;;5050529;28;20457;-58
2022/06/10 13:17:25;;;;;;;9.10;8.23;;;26.20;99.90;;;;;;5050379;28;20507;-58
2022/06/10 13:20:26;;;;;;;9.90;8.93;;;26.50;99.90;;;;;;5049365;28;20492;-58
2022/06/10 13:23:17;;;;;;;9.33;8.50;;;26.50;99.90;;;;;;5050310;28;20453;-56
2022/06/10 13:25:48;;;;;;;10.13;9.23;;;26.70;99.90;;;;;;5049918;28;20982;-58
2022/06/10 13:28:20;;;;;;;11.90;9.70;;;26.70;99.90;;;;;;5050058;28;20450;-57